sensor_id;sensor_type;location;lat;lon;timestamp;P1;durP1;ratioP1;P2;durP2;ratioP2
74749;SDS011;63269;53.330;-6.288;2022-09-09T00:10:09;5.40;;;2.53;;
74749;SDS011;63269;53.330;-6.288;2022-09-09T00:15:21;6.65;;;2.53;;
74749;SDS011;63269;53.330;-6.288;2022-09-09T00:23:00;4.43;;;2.30;;
74749;SDS011;63269;53.330;-6.288;2022-09-09T00:28:30;6.70;;;2.65;;
74749;SDS011;63269;53.330;-6.288;2022-09-09T00:31:04;5.10;;;2.20;;
74749;SDS011;63269;53.330;-6.288;2022-09-09T00:33:37;6.47;;;3.08;;
74749;SDS011;63269;53.330;-6.288;2022-09-09T00:36:04;3.70;;;2.15;;
74749;SDS011;63269;53.330;-6.288;2022-09-09T00:38:45;4.22;;;2.65;;
74749;SDS011;63269;53.330;-6.288;2022-09-09T00:43:40;4.65;;;2.45;;
74749;SDS011;63269;53.330;-6.288;2022-09-09T01:02:44;4.07;;;2.20;;
74749;SDS011;63269;53.330;-6.288;2022-09-09T01:05:17;7.05;;;2.75;;
74749;SDS011;63269;53.330;-6.288;2022-09-09T01:07:47;3.65;;;2.05;;
74749;SDS011;63269;53.330;-6.288;2022-09-09T01:10:17;4.57;;;2.00;;
74749;SDS011;63269;53.330;-6.288;2022-09-09T01:12:53;4.03;;;2.03;;
74749;SDS011;63269;53.330;-6.288;2022-09-09T01:15:25;3.58;;;1.90;;
74749;SDS011;63269;53.330;-6.288;2022-09-09T01:17:57;4.63;;;2.08;;
74749;SDS011;63269;53.330;-6.288;2022-09-09T01:28:44;4.50;;;2.08;;
74749;SDS011;63269;53.330;-6.288;2022-09-09T01:31:12;3.80;;;1.92;;
74749;SDS011;63269;53.330;-6.288;2022-09-09T01:33:40;4.68;;;2.10;;
74749;SDS011;63269;53.330;-6.288;2022-09-09T01:36:13;5.03;;;1.80;;
74749;SDS011;63269;53.330;-6.288;2022-09-09T01:38:51;4.60;;;2.00;;
74749;SDS011;63269;53.330;-6.288;2022-09-09T01:41:17;3.92;;;2.10;;
74749;SDS011;63269;53.330;-6.288;2022-09-09T01:43:43;4.20;;;1.90;;
74749;SDS011;63269;53.330;-6.288;2022-09-09T01:46:08;5.50;;;2.50;;
74749;SDS011;63269;53.330;-6.288;2022-09-09T01:48:34;5.00;;;1.85;;
74749;SDS011;63269;53.330;-6.288;2022-09-09T01:51:00;4.53;;;1.90;;
74749;SDS011;63269;53.330;-6.288;2022-09-09T01:53:25;5.57;;;2.42;;
74749;SDS011;63269;53.330;-6.288;2022-09-09T02:04:11;2.97;;;1.70;;
74749;SDS011;63269;53.330;-6.288;2022-09-09T02:06:55;3.75;;;1.67;;
74749;SDS011;63269;53.330;-6.288;2022-09-09T02:09:22;3.22;;;1.55;;
74749;SDS011;63269;53.330;-6.288;2022-09-09T02:11:49;3.28;;;1.70;;
74749;SDS011;63269;53.330;-6.288;2022-09-09T02:14:25;3.70;;;1.75;;
74749;SDS011;63269;53.330;-6.288;2022-09-09T02:16:57;2.97;;;1.90;;
74749;SDS011;63269;53.330;-6.288;2022-09-09T02:19:27;2.75;;;1.60;;
74749;SDS011;63269;53.330;-6.288;2022-09-09T02:21:57;3.38;;;2.00;;
74749;SDS011;63269;53.330;-6.288;2022-09-09T02:24:24;4.28;;;1.75;;
74749;SDS011;63269;53.330;-6.288;2022-09-09T02:26:51;3.53;;;2.30;;
74749;SDS011;63269;53.330;-6.288;2022-09-09T02:29:22;2.70;;;1.63;;
74749;SDS011;63269;53.330;-6.288;2022-09-09T02:31:50;2.83;;;1.52;;
74749;SDS011;63269;53.330;-6.288;2022-09-09T02:34:17;3.20;;;2.08;;
74749;SDS011;63269;53.330;-6.288;2022-09-09T02:36:45;2.70;;;1.50;;
74749;SDS011;63269;53.330;-6.288;2022-09-09T02:39:12;3.22;;;1.60;;
74749;SDS011;63269;53.330;-6.288;2022-09-09T02:41:40;3.50;;;1.60;;
74749;SDS011;63269;53.330;-6.288;2022-09-09T02:44:10;2.90;;;1.60;;
74749;SDS011;63269;53.330;-6.288;2022-09-09T02:52:02;2.90;;;1.50;;
74749;SDS011;63269;53.330;-6.288;2022-09-09T02:54:34;1.67;;;1.48;;
74749;SDS011;63269;53.330;-6.288;2022-09-09T02:57:06;2.28;;;1.40;;
74749;SDS011;63269;53.330;-6.288;2022-09-09T02:59:35;2.35;;;1.50;;
74749;SDS011;63269;53.330;-6.288;2022-09-09T03:02:01;2.15;;;1.50;;
74749;SDS011;63269;53.330;-6.288;2022-09-09T03:04:26;3.90;;;1.60;;
74749;SDS011;63269;53.330;-6.288;2022-09-09T03:06:52;3.53;;;1.85;;
74749;SDS011;63269;53.330;-6.288;2022-09-09T03:09:17;3.35;;;1.45;;
74749;SDS011;63269;53.330;-6.288;2022-09-09T03:11:43;3.17;;;1.45;;
74749;SDS011;63269;53.330;-6.288;2022-09-09T03:14:08;2.10;;;1.40;;
74749;SDS011;63269;53.330;-6.288;2022-09-09T03:16:36;3.40;;;1.60;;
74749;SDS011;63269;53.330;-6.288;2022-09-09T03:19:01;4.00;;;1.90;;
74749;SDS011;63269;53.330;-6.288;2022-09-09T03:21:27;2.97;;;2.08;;
74749;SDS011;63269;53.330;-6.288;2022-09-09T03:23:52;3.25;;;1.92;;
74749;SDS011;63269;53.330;-6.288;2022-09-09T03:26:18;3.03;;;1.48;;
74749;SDS011;63269;53.330;-6.288;2022-09-09T03:28:44;4.20;;;1.58;;
74749;SDS011;63269;53.330;-6.288;2022-09-09T03:31:10;2.50;;;1.50;;
74749;SDS011;63269;53.330;-6.288;2022-09-09T03:33:38;3.13;;;1.80;;
74749;SDS011;63269;53.330;-6.288;2022-09-09T03:36:04;2.78;;;1.67;;
74749;SDS011;63269;53.330;-6.288;2022-09-09T03:38:30;2.92;;;1.50;;
74749;SDS011;63269;53.330;-6.288;2022-09-09T03:40:57;3.30;;;1.50;;
74749;SDS011;63269;53.330;-6.288;2022-09-09T03:43:23;3.13;;;1.55;;
74749;SDS011;63269;53.330;-6.288;2022-09-09T03:45:50;3.33;;;1.42;;
74749;SDS011;63269;53.330;-6.288;2022-09-09T03:48:15;2.92;;;1.42;;
74749;SDS011;63269;53.330;-6.288;2022-09-09T03:50:45;2.55;;;1.30;;
74749;SDS011;63269;53.330;-6.288;2022-09-09T03:53:16;3.15;;;1.55;;
74749;SDS011;63269;53.330;-6.288;2022-09-09T03:55:46;3.70;;;1.52;;
74749;SDS011;63269;53.330;-6.288;2022-09-09T03:58:12;2.80;;;1.30;;
74749;SDS011;63269;53.330;-6.288;2022-09-09T04:00:39;2.92;;;1.67;;
74749;SDS011;63269;53.330;-6.288;2022-09-09T04:03:07;2.80;;;1.33;;
74749;SDS011;63269;53.330;-6.288;2022-09-09T04:05:33;2.30;;;1.30;;
74749;SDS011;63269;53.330;-6.288;2022-09-09T04:07:59;2.67;;;1.42;;
74749;SDS011;63269;53.330;-6.288;2022-09-09T04:10:25;2.83;;;1.48;;
74749;SDS011;63269;53.330;-6.288;2022-09-09T04:12:50;4.13;;;1.50;;
74749;SDS011;63269;53.330;-6.288;2022-09-09T04:15:15;3.10;;;1.70;;
74749;SDS011;63269;53.330;-6.288;2022-09-09T04:17:43;2.15;;;1.42;;
74749;SDS011;63269;53.330;-6.288;2022-09-09T04:20:09;3.55;;;1.40;;
74749;SDS011;63269;53.330;-6.288;2022-09-09T04:22:37;1.88;;;1.10;;
74749;SDS011;63269;53.330;-6.288;2022-09-09T04:25:04;2.33;;;1.33;;
74749;SDS011;63269;53.330;-6.288;2022-09-09T04:27:30;4.55;;;1.60;;
74749;SDS011;63269;53.330;-6.288;2022-09-09T04:29:56;3.47;;;1.73;;
74749;SDS011;63269;53.330;-6.288;2022-09-09T04:32:22;2.90;;;1.30;;
74749;SDS011;63269;53.330;-6.288;2022-09-09T04:34:48;2.50;;;1.52;;
74749;SDS011;63269;53.330;-6.288;2022-09-09T04:37:14;2.03;;;1.42;;
74749;SDS011;63269;53.330;-6.288;2022-09-09T04:39:39;2.97;;;1.30;;
74749;SDS011;63269;53.330;-6.288;2022-09-09T04:42:04;2.63;;;1.50;;
74749;SDS011;63269;53.330;-6.288;2022-09-09T04:44:30;3.05;;;1.58;;
74749;SDS011;63269;53.330;-6.288;2022-09-09T04:46:55;1.95;;;1.45;;
74749;SDS011;63269;53.330;-6.288;2022-09-09T04:49:21;4.10;;;2.03;;
74749;SDS011;63269;53.330;-6.288;2022-09-09T04:51:48;3.15;;;1.75;;
74749;SDS011;63269;53.330;-6.288;2022-09-09T04:54:14;2.30;;;1.30;;
74749;SDS011;63269;53.330;-6.288;2022-09-09T04:56:39;2.38;;;1.23;;
74749;SDS011;63269;53.330;-6.288;2022-09-09T04:59:07;2.10;;;1.60;;
74749;SDS011;63269;53.330;-6.288;2022-09-09T05:01:32;2.63;;;1.42;;
74749;SDS011;63269;53.330;-6.288;2022-09-09T05:03:59;2.55;;;1.40;;
74749;SDS011;63269;53.330;-6.288;2022-09-09T05:06:24;2.40;;;1.55;;
74749;SDS011;63269;53.330;-6.288;2022-09-09T05:08:50;3.25;;;1.60;;
74749;SDS011;63269;53.330;-6.288;2022-09-09T05:13:52;2.55;;;1.40;;
74749;SDS011;63269;53.330;-6.288;2022-09-09T05:16:18;2.05;;;1.25;;
74749;SDS011;63269;53.330;-6.288;2022-09-09T05:18:44;3.55;;;1.50;;
74749;SDS011;63269;53.330;-6.288;2022-09-09T05:21:11;3.42;;;1.40;;
74749;SDS011;63269;53.330;-6.288;2022-09-09T05:23:37;2.97;;;1.38;;
74749;SDS011;63269;53.330;-6.288;2022-09-09T05:26:03;2.90;;;1.20;;
74749;SDS011;63269;53.330;-6.288;2022-09-09T05:28:30;2.10;;;1.30;;
74749;SDS011;63269;53.330;-6.288;2022-09-09T05:30:59;2.95;;;1.23;;
74749;SDS011;63269;53.330;-6.288;2022-09-09T05:33:25;4.32;;;1.75;;
74749;SDS011;63269;53.330;-6.288;2022-09-09T05:35:58;1.67;;;1.10;;
74749;SDS011;63269;53.330;-6.288;2022-09-09T05:38:25;2.20;;;1.23;;
74749;SDS011;63269;53.330;-6.288;2022-09-09T05:40:51;2.00;;;1.20;;
74749;SDS011;63269;53.330;-6.288;2022-09-09T05:43:17;2.30;;;1.15;;
74749;SDS011;63269;53.330;-6.288;2022-09-09T05:45:45;1.77;;;1.10;;
74749;SDS011;63269;53.330;-6.288;2022-09-09T05:48:12;2.28;;;1.13;;
74749;SDS011;63269;53.330;-6.288;2022-09-09T05:50:41;2.97;;;1.38;;
74749;SDS011;63269;53.330;-6.288;2022-09-09T05:53:08;2.65;;;1.23;;
74749;SDS011;63269;53.330;-6.288;2022-09-09T05:55:34;2.05;;;1.25;;
74749;SDS011;63269;53.330;-6.288;2022-09-09T05:57:59;1.95;;;1.20;;
74749;SDS011;63269;53.330;-6.288;2022-09-09T06:00:26;2.47;;;1.40;;
74749;SDS011;63269;53.330;-6.288;2022-09-09T06:02:52;2.42;;;1.77;;
74749;SDS011;63269;53.330;-6.288;2022-09-09T06:05:18;2.42;;;1.20;;
74749;SDS011;63269;53.330;-6.288;2022-09-09T06:07:43;1.65;;;1.13;;
74749;SDS011;63269;53.330;-6.288;2022-09-09T06:10:10;2.53;;;1.42;;
74749;SDS011;63269;53.330;-6.288;2022-09-09T06:12:38;2.90;;;1.42;;
74749;SDS011;63269;53.330;-6.288;2022-09-09T06:15:04;2.47;;;1.35;;
74749;SDS011;63269;53.330;-6.288;2022-09-09T06:17:30;1.50;;;1.20;;
74749;SDS011;63269;53.330;-6.288;2022-09-09T06:19:55;2.83;;;1.15;;
74749;SDS011;63269;53.330;-6.288;2022-09-09T06:22:21;3.88;;;1.45;;
74749;SDS011;63269;53.330;-6.288;2022-09-09T06:24:46;3.50;;;1.42;;
74749;SDS011;63269;53.330;-6.288;2022-09-09T06:27:11;1.60;;;0.95;;
74749;SDS011;63269;53.330;-6.288;2022-09-09T06:29:38;1.95;;;1.27;;
74749;SDS011;63269;53.330;-6.288;2022-09-09T06:32:04;2.85;;;1.33;;
74749;SDS011;63269;53.330;-6.288;2022-09-09T06:34:29;1.55;;;1.35;;
74749;SDS011;63269;53.330;-6.288;2022-09-09T06:36:55;3.47;;;1.20;;
74749;SDS011;63269;53.330;-6.288;2022-09-09T06:39:22;2.97;;;1.25;;
74749;SDS011;63269;53.330;-6.288;2022-09-09T06:41:48;2.38;;;1.30;;
74749;SDS011;63269;53.330;-6.288;2022-09-09T06:44:14;3.00;;;1.45;;
74749;SDS011;63269;53.330;-6.288;2022-09-09T06:46:40;2.45;;;1.30;;
74749;SDS011;63269;53.330;-6.288;2022-09-09T06:49:07;2.28;;;1.08;;
74749;SDS011;63269;53.330;-6.288;2022-09-09T06:51:37;1.67;;;0.98;;
74749;SDS011;63269;53.330;-6.288;2022-09-09T06:54:07;2.15;;;1.30;;
74749;SDS011;63269;53.330;-6.288;2022-09-09T06:56:36;1.75;;;1.02;;
74749;SDS011;63269;53.330;-6.288;2022-09-09T06:59:05;1.75;;;1.08;;
74749;SDS011;63269;53.330;-6.288;2022-09-09T07:01:35;1.67;;;1.23;;
74749;SDS011;63269;53.330;-6.288;2022-09-09T07:04:01;2.50;;;1.40;;
74749;SDS011;63269;53.330;-6.288;2022-09-09T07:06:30;2.60;;;1.30;;
74749;SDS011;63269;53.330;-6.288;2022-09-09T07:09:01;1.92;;;1.05;;
74749;SDS011;63269;53.330;-6.288;2022-09-09T07:11:30;3.78;;;1.42;;
74749;SDS011;63269;53.330;-6.288;2022-09-09T07:13:57;2.63;;;1.30;;
74749;SDS011;63269;53.330;-6.288;2022-09-09T07:16:24;2.13;;;1.17;;
74749;SDS011;63269;53.330;-6.288;2022-09-09T07:18:50;3.72;;;1.25;;
74749;SDS011;63269;53.330;-6.288;2022-09-09T07:21:16;1.83;;;1.23;;
74749;SDS011;63269;53.330;-6.288;2022-09-09T07:23:41;2.47;;;1.20;;
74749;SDS011;63269;53.330;-6.288;2022-09-09T07:26:08;1.83;;;1.40;;
74749;SDS011;63269;53.330;-6.288;2022-09-09T07:28:38;1.95;;;1.52;;
74749;SDS011;63269;53.330;-6.288;2022-09-09T07:31:06;2.90;;;1.25;;
74749;SDS011;63269;53.330;-6.288;2022-09-09T07:33:34;1.45;;;1.10;;
74749;SDS011;63269;53.330;-6.288;2022-09-09T07:38:48;2.58;;;0.85;;
74749;SDS011;63269;53.330;-6.288;2022-09-09T07:41:20;3.70;;;1.40;;
74749;SDS011;63269;53.330;-6.288;2022-09-09T07:43:48;3.53;;;1.20;;
74749;SDS011;63269;53.330;-6.288;2022-09-09T07:46:14;1.75;;;1.05;;
74749;SDS011;63269;53.330;-6.288;2022-09-09T07:48:48;1.98;;;1.33;;
74749;SDS011;63269;53.330;-6.288;2022-09-09T07:51:25;2.00;;;1.10;;
74749;SDS011;63269;53.330;-6.288;2022-09-09T07:53:53;2.10;;;1.33;;
74749;SDS011;63269;53.330;-6.288;2022-09-09T07:56:20;1.20;;;1.02;;
74749;SDS011;63269;53.330;-6.288;2022-09-09T07:58:48;1.70;;;1.00;;
74749;SDS011;63269;53.330;-6.288;2022-09-09T08:01:19;1.63;;;0.90;;
74749;SDS011;63269;53.330;-6.288;2022-09-09T08:06:26;1.55;;;1.02;;
74749;SDS011;63269;53.330;-6.288;2022-09-09T08:08:53;1.75;;;1.13;;
74749;SDS011;63269;53.330;-6.288;2022-09-09T08:11:20;1.90;;;1.20;;
74749;SDS011;63269;53.330;-6.288;2022-09-09T08:13:46;3.22;;;1.27;;
74749;SDS011;63269;53.330;-6.288;2022-09-09T08:16:14;1.88;;;1.15;;
74749;SDS011;63269;53.330;-6.288;2022-09-09T08:18:41;1.67;;;1.00;;
74749;SDS011;63269;53.330;-6.288;2022-09-09T08:21:07;2.45;;;0.98;;
74749;SDS011;63269;53.330;-6.288;2022-09-09T08:23:38;1.35;;;0.80;;
74749;SDS011;63269;53.330;-6.288;2022-09-09T08:26:10;1.27;;;1.00;;
74749;SDS011;63269;53.330;-6.288;2022-09-09T08:28:38;1.73;;;1.05;;
74749;SDS011;63269;53.330;-6.288;2022-09-09T08:31:09;2.42;;;1.45;;
74749;SDS011;63269;53.330;-6.288;2022-09-09T08:33:44;1.67;;;1.10;;
74749;SDS011;63269;53.330;-6.288;2022-09-09T08:36:14;1.77;;;1.23;;
74749;SDS011;63269;53.330;-6.288;2022-09-09T08:38:41;2.00;;;1.10;;
74749;SDS011;63269;53.330;-6.288;2022-09-09T08:41:23;1.67;;;0.95;;
74749;SDS011;63269;53.330;-6.288;2022-09-09T08:43:58;1.67;;;0.90;;
74749;SDS011;63269;53.330;-6.288;2022-09-09T08:46:31;2.83;;;1.00;;
74749;SDS011;63269;53.330;-6.288;2022-09-09T08:49:12;1.23;;;0.90;;
74749;SDS011;63269;53.330;-6.288;2022-09-09T08:51:44;2.20;;;0.90;;
74749;SDS011;63269;53.330;-6.288;2022-09-09T08:54:09;1.73;;;0.73;;
74749;SDS011;63269;53.330;-6.288;2022-09-09T08:56:35;1.40;;;0.90;;
74749;SDS011;63269;53.330;-6.288;2022-09-09T08:59:03;1.35;;;1.08;;
74749;SDS011;63269;53.330;-6.288;2022-09-09T09:12:00;4.85;;;1.00;;
74749;SDS011;63269;53.330;-6.288;2022-09-09T09:14:30;2.25;;;1.05;;
74749;SDS011;63269;53.330;-6.288;2022-09-09T09:19:41;1.83;;;0.90;;
74749;SDS011;63269;53.330;-6.288;2022-09-09T09:22:18;3.97;;;1.20;;
74749;SDS011;63269;53.330;-6.288;2022-09-09T09:24:52;2.03;;;1.00;;
74749;SDS011;63269;53.330;-6.288;2022-09-09T09:30:00;1.77;;;0.93;;
74749;SDS011;63269;53.330;-6.288;2022-09-09T09:32:31;2.65;;;1.20;;
74749;SDS011;63269;53.330;-6.288;2022-09-09T09:34:58;4.35;;;0.70;;
74749;SDS011;63269;53.330;-6.288;2022-09-09T09:37:30;2.22;;;0.90;;
74749;SDS011;63269;53.330;-6.288;2022-09-09T09:40:07;2.13;;;1.02;;
74749;SDS011;63269;53.330;-6.288;2022-09-09T09:42:37;2.50;;;0.80;;
74749;SDS011;63269;53.330;-6.288;2022-09-09T09:45:15;5.30;;;1.35;;
74749;SDS011;63269;53.330;-6.288;2022-09-09T09:47:45;1.50;;;0.70;;
74749;SDS011;63269;53.330;-6.288;2022-09-09T09:50:17;1.15;;;1.00;;
74749;SDS011;63269;53.330;-6.288;2022-09-09T09:52:52;3.10;;;1.00;;
74749;SDS011;63269;53.330;-6.288;2022-09-09T09:55:19;1.63;;;1.00;;
74749;SDS011;63269;53.330;-6.288;2022-09-09T09:57:45;4.45;;;0.82;;
74749;SDS011;63269;53.330;-6.288;2022-09-09T10:02:44;1.70;;;0.80;;
74749;SDS011;63269;53.330;-6.288;2022-09-09T10:05:20;1.77;;;0.60;;
74749;SDS011;63269;53.330;-6.288;2022-09-09T10:13:28;1.50;;;0.73;;
74749;SDS011;63269;53.330;-6.288;2022-09-09T10:18:47;2.22;;;0.70;;
74749;SDS011;63269;53.330;-6.288;2022-09-09T10:24:23;2.33;;;1.00;;
74749;SDS011;63269;53.330;-6.288;2022-09-09T10:27:32;1.80;;;0.90;;
74749;SDS011;63269;53.330;-6.288;2022-09-09T10:30:17;1.38;;;0.90;;
74749;SDS011;63269;53.330;-6.288;2022-09-09T10:32:48;1.95;;;0.88;;
74749;SDS011;63269;53.330;-6.288;2022-09-09T10:41:16;3.60;;;1.10;;
74749;SDS011;63269;53.330;-6.288;2022-09-09T10:49:23;3.78;;;0.90;;
74749;SDS011;63269;53.330;-6.288;2022-09-09T11:00:14;2.35;;;1.10;;
74749;SDS011;63269;53.330;-6.288;2022-09-09T11:02:43;2.08;;;1.15;;
74749;SDS011;63269;53.330;-6.288;2022-09-09T11:07:56;2.95;;;0.90;;
74749;SDS011;63269;53.330;-6.288;2022-09-09T11:10:28;2.38;;;0.77;;
74749;SDS011;63269;53.330;-6.288;2022-09-09T11:12:56;2.35;;;0.95;;
74749;SDS011;63269;53.330;-6.288;2022-09-09T11:15:39;5.97;;;1.08;;
74749;SDS011;63269;53.330;-6.288;2022-09-09T11:18:11;1.95;;;1.08;;
74749;SDS011;63269;53.330;-6.288;2022-09-09T11:20:39;3.50;;;0.80;;
74749;SDS011;63269;53.330;-6.288;2022-09-09T11:23:06;2.53;;;1.13;;
74749;SDS011;63269;53.330;-6.288;2022-09-09T11:25:46;6.95;;;1.92;;
74749;SDS011;63269;53.330;-6.288;2022-09-09T11:31:21;5.07;;;1.08;;
74749;SDS011;63269;53.330;-6.288;2022-09-09T11:42:12;2.28;;;0.80;;
74749;SDS011;63269;53.330;-6.288;2022-09-09T11:44:41;5.30;;;1.17;;
74749;SDS011;63269;53.330;-6.288;2022-09-09T11:47:25;6.35;;;1.42;;
74749;SDS011;63269;53.330;-6.288;2022-09-09T11:50:06;2.80;;;0.98;;
74749;SDS011;63269;53.330;-6.288;2022-09-09T11:53:02;3.05;;;1.38;;
74749;SDS011;63269;53.330;-6.288;2022-09-09T11:55:30;4.60;;;0.90;;
74749;SDS011;63269;53.330;-6.288;2022-09-09T11:58:04;3.00;;;1.15;;
74749;SDS011;63269;53.330;-6.288;2022-09-09T12:03:31;3.67;;;1.20;;
74749;SDS011;63269;53.330;-6.288;2022-09-09T12:08:37;4.88;;;1.58;;
74749;SDS011;63269;53.330;-6.288;2022-09-09T12:11:07;2.97;;;0.98;;
74749;SDS011;63269;53.330;-6.288;2022-09-09T12:13:32;5.53;;;1.00;;
74749;SDS011;63269;53.330;-6.288;2022-09-09T12:15:59;7.32;;;1.30;;
74749;SDS011;63269;53.330;-6.288;2022-09-09T12:21:05;2.92;;;1.17;;
74749;SDS011;63269;53.330;-6.288;2022-09-09T12:23:40;3.50;;;1.02;;
74749;SDS011;63269;53.330;-6.288;2022-09-09T12:28:51;3.63;;;1.23;;
74749;SDS011;63269;53.330;-6.288;2022-09-09T12:32:19;2.78;;;1.08;;
74749;SDS011;63269;53.330;-6.288;2022-09-09T12:34:29;4.15;;;1.20;;
74749;SDS011;63269;53.330;-6.288;2022-09-09T12:40:01;2.47;;;1.27;;
74749;SDS011;63269;53.330;-6.288;2022-09-09T12:42:28;3.20;;;1.17;;
74749;SDS011;63269;53.330;-6.288;2022-09-09T12:44:58;2.05;;;0.93;;
74749;SDS011;63269;53.330;-6.288;2022-09-09T12:50:32;2.75;;;1.60;;
74749;SDS011;63269;53.330;-6.288;2022-09-09T12:58:21;4.80;;;2.42;;
74749;SDS011;63269;53.330;-6.288;2022-09-09T13:00:53;4.00;;;1.20;;
74749;SDS011;63269;53.330;-6.288;2022-09-09T13:03:23;3.17;;;1.10;;
74749;SDS011;63269;53.330;-6.288;2022-09-09T13:05:50;1.48;;;1.13;;
74749;SDS011;63269;53.330;-6.288;2022-09-09T13:08:16;2.95;;;1.85;;
74749;SDS011;63269;53.330;-6.288;2022-09-09T13:11:01;3.33;;;1.23;;
74749;SDS011;63269;53.330;-6.288;2022-09-09T13:16:00;3.30;;;1.27;;
74749;SDS011;63269;53.330;-6.288;2022-09-09T13:18:28;5.55;;;1.30;;
74749;SDS011;63269;53.330;-6.288;2022-09-09T13:20:55;2.35;;;1.30;;
74749;SDS011;63269;53.330;-6.288;2022-09-09T13:23:23;4.30;;;1.65;;
74749;SDS011;63269;53.330;-6.288;2022-09-09T13:25:52;3.30;;;1.08;;
74749;SDS011;63269;53.330;-6.288;2022-09-09T13:28:20;8.77;;;1.63;;
74749;SDS011;63269;53.330;-6.288;2022-09-09T13:30:55;3.45;;;1.20;;
74749;SDS011;63269;53.330;-6.288;2022-09-09T13:33:28;3.80;;;1.75;;
74749;SDS011;63269;53.330;-6.288;2022-09-09T13:35:56;2.58;;;1.30;;
74749;SDS011;63269;53.330;-6.288;2022-09-09T13:38:23;3.75;;;1.50;;
74749;SDS011;63269;53.330;-6.288;2022-09-09T13:43:47;2.63;;;1.38;;
74749;SDS011;63269;53.330;-6.288;2022-09-09T13:48:59;4.32;;;1.40;;
74749;SDS011;63269;53.330;-6.288;2022-09-09T13:51:30;5.05;;;1.52;;
74749;SDS011;63269;53.330;-6.288;2022-09-09T13:54:03;2.65;;;1.55;;
74749;SDS011;63269;53.330;-6.288;2022-09-09T13:56:30;4.13;;;1.23;;
74749;SDS011;63269;53.330;-6.288;2022-09-09T13:58:56;2.80;;;1.23;;
74749;SDS011;63269;53.330;-6.288;2022-09-09T14:01:23;3.42;;;1.35;;
74749;SDS011;63269;53.330;-6.288;2022-09-09T14:03:48;6.15;;;1.60;;
74749;SDS011;63269;53.330;-6.288;2022-09-09T14:06:14;5.30;;;1.20;;
74749;SDS011;63269;53.330;-6.288;2022-09-09T14:08:39;3.47;;;1.33;;
74749;SDS011;63269;53.330;-6.288;2022-09-09T14:11:05;2.00;;;1.10;;
74749;SDS011;63269;53.330;-6.288;2022-09-09T14:13:31;7.75;;;1.50;;
74749;SDS011;63269;53.330;-6.288;2022-09-09T14:15:57;4.50;;;1.42;;
74749;SDS011;63269;53.330;-6.288;2022-09-09T14:18:22;7.72;;;1.67;;
74749;SDS011;63269;53.330;-6.288;2022-09-09T14:20:50;3.88;;;1.48;;
74749;SDS011;63269;53.330;-6.288;2022-09-09T14:23:15;6.78;;;1.90;;
74749;SDS011;63269;53.330;-6.288;2022-09-09T14:25:42;5.63;;;1.98;;
74749;SDS011;63269;53.330;-6.288;2022-09-09T14:28:11;7.28;;;2.50;;
74749;SDS011;63269;53.330;-6.288;2022-09-09T14:30:41;8.55;;;1.52;;
74749;SDS011;63269;53.330;-6.288;2022-09-09T14:33:08;4.10;;;1.55;;
74749;SDS011;63269;53.330;-6.288;2022-09-09T14:35:35;9.70;;;2.25;;
74749;SDS011;63269;53.330;-6.288;2022-09-09T14:38:01;4.75;;;1.63;;
74749;SDS011;63269;53.330;-6.288;2022-09-09T14:40:27;7.25;;;1.73;;
74749;SDS011;63269;53.330;-6.288;2022-09-09T14:42:53;4.97;;;1.63;;
74749;SDS011;63269;53.330;-6.288;2022-09-09T14:45:18;6.43;;;1.75;;
74749;SDS011;63269;53.330;-6.288;2022-09-09T14:47:46;2.65;;;1.42;;
74749;SDS011;63269;53.330;-6.288;2022-09-09T14:50:11;3.70;;;1.58;;
74749;SDS011;63269;53.330;-6.288;2022-09-09T14:52:37;3.05;;;1.70;;
74749;SDS011;63269;53.330;-6.288;2022-09-09T14:55:03;3.83;;;1.48;;
74749;SDS011;63269;53.330;-6.288;2022-09-09T14:57:29;3.83;;;1.50;;
74749;SDS011;63269;53.330;-6.288;2022-09-09T14:59:55;3.33;;;1.30;;
74749;SDS011;63269;53.330;-6.288;2022-09-09T15:02:21;6.88;;;1.42;;
74749;SDS011;63269;53.330;-6.288;2022-09-09T15:04:47;4.75;;;1.60;;
74749;SDS011;63269;53.330;-6.288;2022-09-09T15:07:14;2.58;;;1.60;;
74749;SDS011;63269;53.330;-6.288;2022-09-09T15:09:40;3.33;;;1.55;;
74749;SDS011;63269;53.330;-6.288;2022-09-09T15:12:06;2.47;;;1.48;;
74749;SDS011;63269;53.330;-6.288;2022-09-09T15:14:31;6.25;;;1.92;;
74749;SDS011;63269;53.330;-6.288;2022-09-09T15:16:57;3.60;;;1.48;;
74749;SDS011;63269;53.330;-6.288;2022-09-09T15:19:23;3.00;;;1.30;;
74749;SDS011;63269;53.330;-6.288;2022-09-09T15:21:48;5.03;;;1.40;;
74749;SDS011;63269;53.330;-6.288;2022-09-09T15:24:14;2.33;;;1.40;;
74749;SDS011;63269;53.330;-6.288;2022-09-09T15:26:41;5.47;;;1.50;;
74749;SDS011;63269;53.330;-6.288;2022-09-09T15:29:06;3.85;;;1.60;;
74749;SDS011;63269;53.330;-6.288;2022-09-09T15:31:33;2.75;;;1.27;;
74749;SDS011;63269;53.330;-6.288;2022-09-09T15:33:59;3.80;;;1.33;;
74749;SDS011;63269;53.330;-6.288;2022-09-09T15:36:33;4.57;;;1.38;;
74749;SDS011;63269;53.330;-6.288;2022-09-09T15:39:00;3.95;;;1.58;;
74749;SDS011;63269;53.330;-6.288;2022-09-09T15:41:26;2.80;;;1.42;;
74749;SDS011;63269;53.330;-6.288;2022-09-09T15:43:54;3.10;;;1.50;;
74749;SDS011;63269;53.330;-6.288;2022-09-09T15:49:08;3.80;;;1.35;;
74749;SDS011;63269;53.330;-6.288;2022-09-09T15:51:38;3.40;;;1.50;;
74749;SDS011;63269;53.330;-6.288;2022-09-09T15:54:28;3.88;;;1.33;;
74749;SDS011;63269;53.330;-6.288;2022-09-09T15:56:58;2.85;;;1.20;;
74749;SDS011;63269;53.330;-6.288;2022-09-09T15:59:26;3.05;;;1.38;;
74749;SDS011;63269;53.330;-6.288;2022-09-09T16:01:53;3.78;;;1.42;;
74749;SDS011;63269;53.330;-6.288;2022-09-09T16:04:19;2.42;;;1.25;;
74749;SDS011;63269;53.330;-6.288;2022-09-09T16:06:58;5.68;;;1.80;;
74749;SDS011;63269;53.330;-6.288;2022-09-09T16:09:25;5.80;;;1.65;;
74749;SDS011;63269;53.330;-6.288;2022-09-09T16:15:13;2.08;;;1.38;;
74749;SDS011;63269;53.330;-6.288;2022-09-09T16:17:38;5.70;;;1.40;;
74749;SDS011;63269;53.330;-6.288;2022-09-09T16:20:04;5.82;;;1.52;;
74749;SDS011;63269;53.330;-6.288;2022-09-09T16:22:32;3.17;;;1.35;;
74749;SDS011;63269;53.330;-6.288;2022-09-09T16:24:57;3.90;;;1.13;;
74749;SDS011;63269;53.330;-6.288;2022-09-09T16:27:23;2.90;;;1.27;;
74749;SDS011;63269;53.330;-6.288;2022-09-09T16:29:48;4.60;;;1.10;;
74749;SDS011;63269;53.330;-6.288;2022-09-09T16:32:14;4.55;;;1.30;;
74749;SDS011;63269;53.330;-6.288;2022-09-09T16:34:39;2.95;;;1.25;;
74749;SDS011;63269;53.330;-6.288;2022-09-09T16:37:05;5.20;;;1.40;;
74749;SDS011;63269;53.330;-6.288;2022-09-09T16:39:30;6.40;;;1.48;;
74749;SDS011;63269;53.330;-6.288;2022-09-09T16:41:55;4.90;;;1.45;;
74749;SDS011;63269;53.330;-6.288;2022-09-09T16:44:22;5.75;;;1.67;;
74749;SDS011;63269;53.330;-6.288;2022-09-09T16:46:47;2.40;;;1.38;;
74749;SDS011;63269;53.330;-6.288;2022-09-09T16:49:13;3.45;;;1.17;;
74749;SDS011;63269;53.330;-6.288;2022-09-09T16:51:43;2.72;;;1.30;;
74749;SDS011;63269;53.330;-6.288;2022-09-09T16:54:12;3.08;;;1.65;;
74749;SDS011;63269;53.330;-6.288;2022-09-09T16:56:39;3.40;;;1.63;;
74749;SDS011;63269;53.330;-6.288;2022-09-09T16:59:16;4.13;;;1.40;;
74749;SDS011;63269;53.330;-6.288;2022-09-09T17:01:43;2.85;;;1.13;;
74749;SDS011;63269;53.330;-6.288;2022-09-09T17:04:11;3.85;;;1.38;;
74749;SDS011;63269;53.330;-6.288;2022-09-09T17:09:10;7.47;;;2.13;;
74749;SDS011;63269;53.330;-6.288;2022-09-09T17:11:36;11.75;;;2.22;;
74749;SDS011;63269;53.330;-6.288;2022-09-09T17:14:03;13.57;;;2.55;;
74749;SDS011;63269;53.330;-6.288;2022-09-09T17:16:30;4.78;;;2.15;;
74749;SDS011;63269;53.330;-6.288;2022-09-09T17:18:56;6.60;;;2.70;;
74749;SDS011;63269;53.330;-6.288;2022-09-09T17:21:24;13.98;;;3.20;;
74749;SDS011;63269;53.330;-6.288;2022-09-09T17:23:51;8.02;;;2.83;;
74749;SDS011;63269;53.330;-6.288;2022-09-09T17:26:18;6.63;;;2.63;;
74749;SDS011;63269;53.330;-6.288;2022-09-09T17:28:46;8.98;;;2.50;;
74749;SDS011;63269;53.330;-6.288;2022-09-09T17:31:12;6.15;;;2.17;;
74749;SDS011;63269;53.330;-6.288;2022-09-09T17:33:40;4.15;;;1.98;;